Barnstable Municipal Boardman Polando Field
KHYA : rendu visible

Aérodrome :











RETROUVEZ-NOUS SUR...

 
LOGIN :

S'inscrire | Disclaimer

   EN    FR    IT 

 









Légende :    VFR   VFR Marginal   IFR   IFR Intensif   IFR Très Intensif
Visi : 
Plafond : 
>= 8 km
>= 3000ft
5 à 8 km
1000 à 3000 ft
1500m à 5 km
500 à 1000 ft
800 à 1500m
200 à 500 ft
< 800m
< 200 ft
Symboles :   Orages  Brouillard  Fortes neiges  Fortes précipitations  Vent > 20 kt






- Altitude de l'aérodrome : 54 ft
- Code IATA : HYA


KHYA - Barnstable Municipal Boardman Polando Field

DERNIER METAR :
  • 210013Z 35010G16KT 10SM BKN016 BKN025 OVC038 06/03 A2990 RMK AO2 RAE06 P0000 T00560028

METARs EXPIRÉS :
  • 202356Z 34008G17KT 10SM -RA BKN014 BKN019 OVC037 05/03 A2990 RMK AO2 SLP125 P0001 60009 T00500028 10061 20044 53013
  • 202340Z 35010KT 9SM -RA BKN014 OVC020 06/03 A2989 RMK AO2 P0001 T00560028
  • 202256Z 35010G20KT 8SM -RA BKN015 OVC020 05/03 A2988 RMK AO2 SLP120 P0000 T00500028
  • 202237Z 35011G18KT 10SM -RA BKN013 BKN020 OVC028 05/03 A2988 RMK AO2 P0000 T00500028
  • 202156Z 35011KT 9SM -RA BKN015 OVC021 05/02 A2987 RMK AO2 SLP117 P0001 T00500022

TAF KHYA
Valide du 21 à 00h jusqu'au 22 à 00h UTC


202323Z 2100/2124 34014G21KT P6SM -SHRA OVC015
FM210500 35015G25KT P6SM OVC015
FM210800 35014G25KT P6SM BKN045
FM211100 34012G20KT P6SM SCT045
FM212200 32005KT P6SM SKC



MET'MAP, la Météo Aéronautique d'un coup d'oeil ! - Copyright ORBIFLY Décembre 2007 - Disclaimer

ORBIFLY MET'MAP TEAM :

Programmation & Développement : Alexandra Zaïnal
Conception & Développement : Baudouin d'Aumeries
Co-Programmation & Développement : Marc-Olivier Méhu
Soutien technique & logistique : Manuel Goepfert

Contact : metmap@orbifly.com




SOURCES & CREDITS :

   NOAA       Earth
Advisory